Dewara Airstrip


Codes: AYDW/
Name: Dewara Airstrip
City: Dewara
Country: Papua New Guinea
Elevation: 25 ft.

Photos at Dewara Airstrip


   Photos courtesy of SpottingLog. You can add your own sightings and photos by signing up for a free trial today.



No photos found.

Weather at Dewara Airstrip


Time (UTC)DescriptionTempratureWindCloud coverageVisibilityPressureHumidity
19-Apr-2024 03:00Overcast Clouds34°C4 mph, NW87%10000m1006hPa54%
19-Apr-2024 06:00Broken Clouds34°C4 mph, W84%10000m1005hPa54%
19-Apr-2024 09:00Overcast Clouds30°C2 mph, W86%10000m1006hPa73%
19-Apr-2024 12:00Moderate Rain25°C2 mph, S94%10000m1008hPa98%
19-Apr-2024 15:00Moderate Rain24°C2 mph, NE100%5182m1008hPa99%
19-Apr-2024 18:00Moderate Rain24°C4 mph, NE100%857m1008hPa99%
19-Apr-2024 21:00Moderate Rain24°C4 mph, N100%7083m1010hPa99%
20-Apr-2024 00:00Light Rain25°C2 mph, NW100%10000m1011hPa97%
20-Apr-2024 03:00Overcast Clouds26°C4 mph, NW100%10000m1008hPa90%
20-Apr-2024 06:00Overcast Clouds28°C2 mph, N100%10000m1006hPa79%
20-Apr-2024 09:00Overcast Clouds25°C2 mph, E100%10000m1007hPa92%
20-Apr-2024 12:00Overcast Clouds25°C2 mph, SE100%10000m1009hPa94%
20-Apr-2024 15:00Overcast Clouds24°C2 mph, E100%10000m1008hPa96%
20-Apr-2024 18:00Overcast Clouds24°C2 mph, E100%10000m1008hPa96%
20-Apr-2024 21:00Broken Clouds24°C2 mph, E79%10000m1009hPa95%
21-Apr-2024 00:00Overcast Clouds30°C4 mph, E85%10000m1010hPa71%
21-Apr-2024 03:00Light Rain32°C2 mph, NE100%10000m1006hPa67%
21-Apr-2024 06:00Light Rain32°C2 mph, E100%10000m1005hPa63%
21-Apr-2024 09:00Light Rain26°C4 mph, SE100%10000m1007hPa91%
21-Apr-2024 12:00Light Rain25°C2 mph, SE100%10000m1009hPa97%
21-Apr-2024 15:00Light Rain24°C2 mph, SE100%10000m1008hPa98%
21-Apr-2024 18:00Overcast Clouds24°C2 mph, E100%10000m1007hPa98%
21-Apr-2024 21:00Light Rain24°C2 mph, E100%10000m1009hPa98%
22-Apr-2024 00:00Light Rain29°C4 mph, E100%10000m1009hPa81%
22-Apr-2024 03:00Light Rain33°C2 mph, E100%10000m1006hPa56%
22-Apr-2024 06:00Light Rain31°C4 mph, SE100%10000m1004hPa71%
22-Apr-2024 09:00Light Rain27°C2 mph, SE94%10000m1006hPa89%
22-Apr-2024 12:00Light Rain25°C2 mph, SE94%10000m1009hPa97%
22-Apr-2024 15:00Overcast Clouds25°C2 mph, SE100%10000m1008hPa98%
22-Apr-2024 18:00Overcast Clouds24°C2 mph, E100%10000m1007hPa99%
22-Apr-2024 21:00Light Rain25°C2 mph, E100%10000m1009hPa98%
23-Apr-2024 00:00Light Rain29°C4 mph, E100%10000m1009hPa80%
23-Apr-2024 03:00Light Rain29°C2 mph, E100%10000m1007hPa85%
23-Apr-2024 06:00Light Rain28°C2 mph, S100%10000m1005hPa87%
23-Apr-2024 09:00Light Rain26°C4 mph, SE100%10000m1007hPa96%
23-Apr-2024 12:00Overcast Clouds25°C2 mph, SE99%10000m1009hPa98%
23-Apr-2024 15:00Light Rain24°C2 mph, SE94%10000m1008hPa99%
23-Apr-2024 18:00Broken Clouds24°C2 mph, SE75%10000m1008hPa99%
23-Apr-2024 21:00Scattered Clouds24°C2 mph, SE47%10000m1009hPa98%
24-Apr-2024 00:00Light Rain29°C4 mph, E41%10000m1010hPa77%